createdAt,value
2018-08-22T00:03:57.442Z,6.40
2018-08-22T00:09:00.803Z,3.77
2018-08-22T00:14:04.195Z,5.03
2018-08-22T00:19:07.756Z,5.90
2018-08-22T00:24:10.998Z,5.40
2018-08-22T00:29:14.476Z,3.80
2018-08-22T00:34:17.682Z,3.30
2018-08-22T00:39:20.899Z,2.97
2018-08-22T00:44:24.153Z,3.87
2018-08-22T00:49:27.425Z,4.13
2018-08-22T00:54:30.842Z,3.80
2018-08-22T00:59:34.046Z,5.27
2018-08-22T01:04:37.257Z,3.70
2018-08-22T01:09:40.463Z,4.87
2018-08-22T01:14:43.650Z,3.10
2018-08-22T01:19:46.885Z,4.77
2018-08-22T01:24:50.784Z,4.30
2018-08-22T01:29:54.719Z,4.67
2018-08-22T01:34:57.933Z,5.73
2018-08-22T01:40:01.410Z,5.07
2018-08-22T01:45:05.018Z,4.60
2018-08-22T01:50:08.255Z,6.70
2018-08-22T01:55:11.485Z,3.37
2018-08-22T02:00:14.865Z,3.40
2018-08-22T02:05:18.178Z,2.87
2018-08-22T02:10:21.422Z,3.90
2018-08-22T02:15:24.891Z,2.50
2018-08-22T02:20:28.353Z,3.93
2018-08-22T02:25:31.558Z,3.57
2018-08-22T02:30:34.824Z,3.60
2018-08-22T02:35:38.240Z,3.20
2018-08-22T02:40:41.594Z,4.27
2018-08-22T02:45:44.768Z,6.43
2018-08-22T02:50:48.019Z,2.57
2018-08-22T02:55:51.230Z,3.30
2018-08-22T03:00:54.439Z,3.97
2018-08-22T03:05:57.703Z,5.00
2018-08-22T03:11:01.331Z,2.30
2018-08-22T03:16:04.634Z,2.40
2018-08-22T03:21:08.025Z,3.63
2018-08-22T03:26:11.489Z,2.57
2018-08-22T03:31:14.715Z,2.87
2018-08-22T03:36:17.939Z,3.27
2018-08-22T03:41:21.552Z,2.90
2018-08-22T03:46:24.787Z,2.70
2018-08-22T03:51:28.101Z,2.17
2018-08-22T03:56:31.332Z,2.80
2018-08-22T04:01:34.513Z,3.00
2018-08-22T04:06:37.870Z,2.40
2018-08-22T04:11:41.528Z,3.03
2018-08-22T04:16:44.731Z,2.23
2018-08-22T04:21:47.918Z,2.40
2018-08-22T04:26:51.221Z,2.90
2018-08-22T04:31:54.530Z,2.13
2018-08-22T04:36:57.855Z,2.90
2018-08-22T04:42:01.500Z,2.40
2018-08-22T04:47:04.843Z,1.97
2018-08-22T04:52:08.102Z,2.53
2018-08-22T04:57:11.350Z,4.47
2018-08-22T05:02:14.556Z,2.10
2018-08-22T05:07:17.937Z,2.40
2018-08-22T05:12:21.166Z,2.23
2018-08-22T05:17:24.700Z,2.47
2018-08-22T05:22:28.077Z,1.80
2018-08-22T05:27:31.410Z,2.30
2018-08-22T05:32:34.752Z,4.73
2018-08-22T05:37:37.970Z,1.83
2018-08-22T05:42:41.207Z,4.27
2018-08-22T05:47:45.304Z,1.77
2018-08-22T05:52:49.027Z,1.67
2018-08-22T05:57:52.420Z,2.00
2018-08-22T06:02:56.243Z,2.30
2018-08-22T06:07:59.510Z,3.50
2018-08-22T06:13:02.812Z,3.90
2018-08-22T06:18:06.576Z,3.60
2018-08-22T06:23:10.253Z,2.37
2018-08-22T06:28:14.036Z,3.37
2018-08-22T06:33:17.367Z,2.60
2018-08-22T06:38:21.455Z,3.47
2018-08-22T06:43:25.010Z,3.50
2018-08-22T06:48:28.306Z,3.17
2018-08-22T06:53:32.594Z,4.27
2018-08-22T06:58:36.067Z,2.43
2018-08-22T07:03:39.835Z,3.10
2018-08-22T07:08:43.742Z,5.97
2018-08-22T07:13:47.090Z,2.27
2018-08-22T07:18:51.441Z,2.40
2018-08-22T07:23:55.533Z,3.50
2018-08-22T07:28:58.830Z,2.23
2018-08-22T07:34:02.278Z,2.70
2018-08-22T07:39:09.770Z,6.23
2018-08-22T07:44:13.364Z,4.50
2018-08-22T07:49:17.180Z,2.27
2018-08-22T07:54:20.389Z,2.93
2018-08-22T07:59:24.366Z,4.50
2018-08-22T08:04:27.685Z,4.20
2018-08-22T08:09:31.652Z,5.10
2018-08-22T08:14:34.954Z,2.80
2018-08-22T08:19:38.225Z,1.97
2018-08-22T08:24:41.491Z,2.20
2018-08-22T08:29:44.774Z,5.53
2018-08-22T08:34:48.410Z,2.70
2018-08-22T08:39:51.838Z,3.47
2018-08-22T08:44:55.177Z,3.70
2018-08-22T08:49:58.754Z,2.67
2018-08-22T08:55:02.105Z,3.23
2018-08-22T09:00:05.498Z,1.90
2018-08-22T09:05:09.158Z,3.03
2018-08-22T09:10:17.726Z,3.73
2018-08-22T09:15:22.360Z,1.97
2018-08-22T09:20:25.785Z,5.17
2018-08-22T09:25:29.332Z,3.17
2018-08-22T09:30:33.267Z,1.93
2018-08-22T09:35:36.905Z,3.37
2018-08-22T09:40:41.030Z,3.30
2018-08-22T09:45:44.450Z,1.93
2018-08-22T09:50:48.389Z,3.00
2018-08-22T09:55:51.701Z,2.13
2018-08-22T10:01:00.833Z,3.23
2018-08-22T10:06:04.137Z,3.50
2018-08-22T10:11:08.035Z,2.77
2018-08-22T10:16:11.882Z,2.37
2018-08-22T10:21:15.262Z,3.57
2018-08-22T10:26:18.522Z,2.10
2018-08-22T10:31:22.070Z,4.00
2018-08-22T10:36:26.159Z,2.23
2018-08-22T10:41:30.093Z,3.83
2018-08-22T10:46:33.706Z,2.17
2018-08-22T10:51:37.128Z,6.13
2018-08-22T10:56:40.656Z,3.07
2018-08-22T11:01:44.011Z,6.57
2018-08-22T11:06:47.321Z,2.83
2018-08-22T11:11:50.828Z,6.70
2018-08-22T11:16:54.172Z,4.43
2018-08-22T11:22:08.735Z,5.50
2018-08-22T11:27:23.495Z,7.93
2018-08-22T11:32:38.516Z,3.23
2018-08-22T11:37:43.174Z,7.00
2018-08-22T11:42:46.852Z,11.97
2018-08-22T11:47:50.388Z,3.00
2018-08-22T11:52:53.860Z,2.13
2018-08-22T11:57:57.209Z,2.93
2018-08-22T12:03:00.569Z,2.13
2018-08-22T12:08:04.099Z,4.17
2018-08-22T12:13:07.442Z,4.93
2018-08-22T12:18:12.016Z,11.63
2018-08-22T12:23:16.834Z,3.00
2018-08-22T12:28:21.771Z,4.73
2018-08-22T12:33:25.831Z,7.13
2018-08-22T12:38:30.193Z,8.47
2018-08-22T12:43:34.121Z,5.30
2018-08-22T12:48:37.845Z,2.97
2018-08-22T12:53:41.537Z,4.90
2018-08-22T12:58:44.807Z,6.20
2018-08-22T13:03:48.088Z,13.43
2018-08-22T13:08:52.627Z,18.20
2018-08-22T13:13:56.081Z,9.73
2018-08-22T13:18:59.796Z,7.03
2018-08-22T13:24:03.324Z,7.13
2018-08-22T13:29:06.637Z,3.03
2018-08-22T13:34:10.236Z,3.63
2018-08-22T13:39:13.574Z,5.27
2018-08-22T13:44:17.558Z,3.07
2018-08-22T13:49:20.929Z,8.23
2018-08-22T13:54:24.368Z,10.87
2018-08-22T13:59:27.713Z,5.87
2018-08-22T14:04:31.094Z,3.53
2018-08-22T14:09:34.561Z,2.87
2018-08-22T14:14:38.040Z,3.83
2018-08-22T14:19:42.000Z,5.57
2018-08-22T14:24:45.393Z,4.00
2018-08-22T14:29:49.005Z,5.73
2018-08-22T14:34:52.934Z,7.77
2018-08-22T14:39:56.509Z,6.20
2018-08-22T14:45:00.459Z,6.10
2018-08-22T14:50:03.778Z,4.30
2018-08-22T14:55:07.204Z,2.13
2018-08-22T15:00:11.544Z,3.23
2018-08-22T15:05:15.252Z,2.90
2018-08-22T15:10:19.475Z,7.77
2018-08-22T15:15:23.685Z,6.30
2018-08-22T15:20:27.098Z,3.50
2018-08-22T15:25:30.755Z,5.60
2018-08-22T15:30:37.417Z,4.10
2018-08-22T15:35:41.066Z,4.20
2018-08-22T15:40:44.719Z,6.67
2018-08-22T15:45:48.158Z,1.87
2018-08-22T15:50:51.572Z,6.13
2018-08-22T15:55:55.002Z,2.80
2018-08-22T16:00:58.568Z,8.90
2018-08-22T16:06:02.088Z,5.87
2018-08-22T16:11:06.997Z,3.77
2018-08-22T16:16:10.517Z,5.00
2018-08-22T16:21:14.069Z,3.20
2018-08-22T16:26:17.561Z,5.13
2018-08-22T16:31:25.145Z,3.67
2018-08-22T16:36:30.579Z,3.37
2018-08-22T16:41:34.125Z,3.20
2018-08-22T16:46:37.789Z,3.93
2018-08-22T16:51:41.598Z,6.57
2018-08-22T16:56:45.387Z,5.27
2018-08-22T17:01:50.511Z,4.60
2018-08-22T17:06:53.977Z,6.07
2018-08-22T17:11:57.473Z,4.30
2018-08-22T17:17:00.935Z,3.47
2018-08-22T17:22:04.228Z,3.03
2018-08-22T17:27:07.591Z,4.33
2018-08-22T17:32:10.970Z,8.93
2018-08-22T17:37:14.318Z,4.10
2018-08-22T17:42:18.639Z,7.77
2018-08-22T17:47:21.929Z,3.03
2018-08-22T17:52:25.470Z,7.80
2018-08-22T17:57:29.054Z,4.70
2018-08-22T18:02:32.703Z,10.60
2018-08-22T18:07:36.135Z,5.37
2018-08-22T18:12:39.464Z,7.50
2018-08-22T18:17:42.751Z,5.23
2018-08-22T18:22:46.040Z,5.57
2018-08-22T18:27:52.525Z,10.13
2018-08-22T18:32:55.821Z,9.00
2018-08-22T18:37:59.729Z,11.33
2018-08-22T18:43:04.594Z,7.30
2018-08-22T18:48:08.123Z,9.77
2018-08-22T18:53:11.681Z,15.03
2018-08-22T18:58:15.298Z,10.40
2018-08-22T19:03:18.697Z,13.57
2018-08-22T19:08:22.115Z,11.20
2018-08-22T19:13:26.129Z,12.73
2018-08-22T19:18:29.528Z,13.00
2018-08-22T19:23:33.270Z,13.30
2018-08-22T19:28:57.139Z,8.40
2018-08-22T19:34:00.693Z,11.33
2018-08-22T19:39:04.690Z,8.63
2018-08-22T19:44:08.147Z,9.63
2018-08-22T19:49:11.550Z,11.63
2018-08-22T19:54:14.861Z,9.70
2018-08-22T19:59:18.303Z,16.47
2018-08-22T20:04:21.851Z,16.60
2018-08-22T20:09:25.392Z,9.33
2018-08-22T20:14:28.900Z,14.23
2018-08-22T20:19:37.279Z,17.17
2018-08-22T20:24:41.379Z,15.83
2018-08-22T20:29:44.719Z,20.10
2018-08-22T20:34:48.429Z,14.93
2018-08-22T20:39:57.175Z,13.33
2018-08-22T20:45:01.066Z,15.83
2018-08-22T20:50:04.884Z,12.30
2018-08-22T20:55:08.192Z,20.87
2018-08-22T21:00:11.901Z,19.10
2018-08-22T21:05:16.192Z,25.37
2018-08-22T21:10:20.550Z,16.47
2018-08-22T21:15:24.506Z,13.10
2018-08-22T21:20:28.365Z,15.97
2018-08-22T21:25:32.428Z,14.60
2018-08-22T21:30:39.051Z,14.43
2018-08-22T21:35:43.239Z,17.40
2018-08-22T21:40:46.758Z,14.50
2018-08-22T21:45:51.025Z,19.80
2018-08-22T21:50:54.486Z,21.10
2018-08-22T21:55:58.747Z,16.67
2018-08-22T22:01:04.203Z,14.40
2018-08-22T22:06:08.071Z,16.80
2018-08-22T22:11:11.849Z,11.73
2018-08-22T22:16:15.371Z,10.27
2018-08-22T22:21:18.746Z,18.40
2018-08-22T22:26:22.817Z,12.70
2018-08-22T22:31:26.262Z,10.50
2018-08-22T22:36:30.118Z,11.63
2018-08-22T22:41:33.268Z,8.73
2018-08-22T22:46:36.535Z,9.30
2018-08-22T22:51:39.989Z,13.40
2018-08-22T22:56:43.306Z,10.50
2018-08-22T23:01:46.800Z,10.47
2018-08-22T23:06:49.965Z,8.70
2018-08-22T23:11:53.303Z,10.30
2018-08-22T23:16:56.654Z,9.17
2018-08-22T23:21:59.907Z,7.00
2018-08-22T23:27:03.289Z,6.77
2018-08-22T23:32:06.765Z,7.93
2018-08-22T23:37:09.933Z,12.97
2018-08-22T23:42:13.389Z,7.83
2018-08-22T23:47:16.617Z,6.87
2018-08-22T23:52:19.835Z,8.13
2018-08-22T23:57:23.076Z,6.53
